createdAt,value
2022-11-27T00:03:30.608Z,52.74
2022-11-27T00:08:32.405Z,50.50
2022-11-27T00:13:34.521Z,53.35
2022-11-27T00:18:36.512Z,53.15
2022-11-27T00:23:38.650Z,52.99
2022-11-27T00:28:40.303Z,50.69
2022-11-27T00:33:42.172Z,52.12
2022-11-27T00:38:44.053Z,52.28
2022-11-27T00:43:46.570Z,51.99
2022-11-27T00:48:48.228Z,52.60
2022-11-27T00:53:50.425Z,55.26
2022-11-27T00:58:52.944Z,53.29
2022-11-27T01:03:56.451Z,51.92
2022-11-27T01:08:59.188Z,52.76
2022-11-27T01:14:08.264Z,52.63
2022-11-27T01:19:12.719Z,52.87
2022-11-27T01:24:15.735Z,52.84
2022-11-27T01:29:17.311Z,52.88
2022-11-27T01:34:19.159Z,51.78
2022-11-27T01:39:21.502Z,53.36
2022-11-27T01:44:26.147Z,51.68
2022-11-27T01:49:33.275Z,55.05
2022-11-27T01:54:41.926Z,55.98
2022-11-27T01:59:45.243Z,53.82
2022-11-27T02:04:46.793Z,55.98
2022-11-27T02:09:48.481Z,56.00
2022-11-27T02:14:52.729Z,56.74
2022-11-27T02:20:33.432Z,56.67
2022-11-27T02:25:56.957Z,53.84
2022-11-27T02:31:06.168Z,54.23
2022-11-27T02:36:14.370Z,54.99
2022-11-27T02:41:46.655Z,56.57
2022-11-27T02:46:49.887Z,53.67
2022-11-27T02:51:57.297Z,52.97
2022-11-27T02:57:03.668Z,53.06
2022-11-27T03:02:10.734Z,52.60
2022-11-27T03:07:32.174Z,53.29
2022-11-27T03:12:33.827Z,53.36
2022-11-27T03:18:08.202Z,51.62
2022-11-27T03:23:09.859Z,52.51
2022-11-27T03:28:13.862Z,52.37
2022-11-27T03:33:15.561Z,52.32
2022-11-27T03:38:17.214Z,50.34
2022-11-27T03:43:24.123Z,55.48
2022-11-27T03:48:37.581Z,56.41
2022-11-27T03:54:03.568Z,55.78
2022-11-27T03:59:33.663Z,54.22
2022-11-27T04:04:35.363Z,55.50
2022-11-27T04:09:36.943Z,57.60
2022-11-27T04:14:39.037Z,58.72
2022-11-27T04:19:40.773Z,58.07
2022-11-27T04:24:42.482Z,57.78
2022-11-27T04:29:44.257Z,58.20
2022-11-27T04:34:45.835Z,56.97
2022-11-27T04:39:47.531Z,54.38
2022-11-27T04:44:49.179Z,53.95
2022-11-27T04:49:50.744Z,55.04
2022-11-27T04:54:56.784Z,54.61
2022-11-27T05:00:01.559Z,50.75
2022-11-27T05:05:03.785Z,52.63
2022-11-27T05:10:06.533Z,51.39
2022-11-27T05:15:09.745Z,50.46
2022-11-27T05:20:11.548Z,51.29
2022-11-27T05:25:13.166Z,52.95
2022-11-27T05:30:14.793Z,51.26
2022-11-27T05:35:16.547Z,51.91
2022-11-27T05:40:18.139Z,50.93
2022-11-27T05:45:19.789Z,54.25
2022-11-27T05:50:21.394Z,52.69
2022-11-27T05:55:23.058Z,52.75
2022-11-27T06:00:26.976Z,51.67
2022-11-27T06:05:28.699Z,52.22
2022-11-27T06:10:30.349Z,51.49
2022-11-27T06:15:32.055Z,50.13
2022-11-27T06:20:33.646Z,52.33
2022-11-27T06:25:35.198Z,51.89
2022-11-27T06:30:38.144Z,50.94
2022-11-27T06:35:39.695Z,55.45
2022-11-27T06:40:41.276Z,54.57
2022-11-27T06:45:42.908Z,54.31
2022-11-27T06:50:44.483Z,55.54
2022-11-27T06:55:47.176Z,54.68
2022-11-27T07:00:48.819Z,50.55
2022-11-27T07:05:50.378Z,50.91
2022-11-27T07:10:52.072Z,50.38
2022-11-27T07:15:54.062Z,51.66
2022-11-27T07:20:56.782Z,50.79
2022-11-27T07:25:59.152Z,55.85
2022-11-27T07:31:01.694Z,55.68
2022-11-27T07:36:13.390Z,55.16
2022-11-27T07:41:15.681Z,56.38
2022-11-27T07:46:23.506Z,55.27
2022-11-27T07:51:25.233Z,53.23
2022-11-27T07:56:27.919Z,53.08
2022-11-27T08:01:29.610Z,52.22
2022-11-27T08:06:31.246Z,52.29
2022-11-27T08:11:35.252Z,53.65
2022-11-27T08:16:37.004Z,51.05
2022-11-27T08:21:38.822Z,52.29
2022-11-27T08:26:40.530Z,50.44
2022-11-27T08:31:42.237Z,53.17
2022-11-27T08:36:43.884Z,55.83
2022-11-27T08:41:45.567Z,53.33
2022-11-27T08:46:47.436Z,55.41
2022-11-27T08:51:49.128Z,53.46
2022-11-27T08:56:52.770Z,55.49
2022-11-27T09:01:54.423Z,54.37
2022-11-27T09:06:58.701Z,52.24
2022-11-27T09:12:00.574Z,53.35
2022-11-27T09:17:02.290Z,53.12
2022-11-27T09:22:04.099Z,55.22
2022-11-27T09:27:05.755Z,53.44
2022-11-27T09:32:07.383Z,51.48
2022-11-27T09:37:09.243Z,50.91
2022-11-27T09:42:26.295Z,50.00
2022-11-27T09:47:56.764Z,50.12
2022-11-27T09:53:05.619Z,50.83
2022-11-27T09:58:18.722Z,50.08
2022-11-27T10:03:25.563Z,51.39
2022-11-27T10:09:04.198Z,49.86
2022-11-27T10:14:11.515Z,50.99
2022-11-27T10:19:32.505Z,51.11
2022-11-27T10:24:46.070Z,49.34
2022-11-27T10:29:54.377Z,51.81
2022-11-27T10:35:01.494Z,52.81
2022-11-27T10:40:08.673Z,51.47
2022-11-27T10:45:29.811Z,51.91
2022-11-27T10:50:31.577Z,52.77
2022-11-27T10:55:52.733Z,51.50
2022-11-27T11:06:25.233Z,59.78
2022-11-27T11:11:27.591Z,59.15
2022-11-27T11:16:35.287Z,57.41
2022-11-27T11:21:42.551Z,60.18
2022-11-27T11:26:53.397Z,56.76
2022-11-27T11:31:57.272Z,58.27
2022-11-27T11:37:02.919Z,58.44
2022-11-27T11:42:29.264Z,57.81
2022-11-27T11:47:31.914Z,55.85
2022-11-27T11:52:42.438Z,56.23
2022-11-27T11:58:22.254Z,57.12
2022-11-27T12:03:29.806Z,57.72
2022-11-27T12:09:08.734Z,56.63
2022-11-27T12:14:11.483Z,55.55
2022-11-27T12:19:25.158Z,59.18
2022-11-27T12:24:44.121Z,55.57
2022-11-27T12:30:21.071Z,58.13
2022-11-27T12:35:32.927Z,56.67
2022-11-27T12:41:18.496Z,56.53
2022-11-27T12:46:26.628Z,57.67
2022-11-27T12:51:30.715Z,58.17
2022-11-27T12:56:39.243Z,59.79
2022-11-27T13:01:50.548Z,58.37
2022-11-27T13:07:20.570Z,57.21
2022-11-27T13:12:51.846Z,57.27
2022-11-27T13:18:41.426Z,57.99
2022-11-27T13:23:43.140Z,55.74
2022-11-27T13:28:51.219Z,56.19
2022-11-27T13:34:04.706Z,55.68
2022-11-27T13:39:07.294Z,54.67
2022-11-27T13:44:24.683Z,55.85
2022-11-27T13:49:33.080Z,55.76
2022-11-27T13:54:34.743Z,56.43
2022-11-27T13:59:39.306Z,55.78
2022-11-27T14:04:55.605Z,57.42
2022-11-27T14:10:10.014Z,59.08
2022-11-27T14:15:26.495Z,57.48
2022-11-27T14:20:31.539Z,54.44
2022-11-27T14:25:37.835Z,52.43
2022-11-27T14:30:49.285Z,53.42
2022-11-27T14:36:19.701Z,55.29
2022-11-27T14:41:26.678Z,56.99
2022-11-27T14:46:29.017Z,54.32
2022-11-27T14:51:36.024Z,55.72
2022-11-27T14:56:41.895Z,53.47
2022-11-27T15:01:45.890Z,54.06
2022-11-27T15:06:47.586Z,54.22
2022-11-27T15:11:56.776Z,54.00
2022-11-27T15:16:59.147Z,53.11
2022-11-27T15:22:01.507Z,53.53
2022-11-27T15:27:23.374Z,59.31
2022-11-27T15:32:27.687Z,56.04
2022-11-27T15:37:34.530Z,54.87
2022-11-27T15:42:36.398Z,53.51
2022-11-27T15:47:39.465Z,54.26
2022-11-27T15:52:41.733Z,58.45
2022-11-27T15:57:43.605Z,56.61
2022-11-27T16:02:45.276Z,56.93
2022-11-27T16:07:50.069Z,58.82
2022-11-27T16:12:55.592Z,59.36
2022-11-27T16:17:57.406Z,59.24
2022-11-27T16:22:58.995Z,59.76
2022-11-27T16:28:03.097Z,58.49
2022-11-27T16:33:04.985Z,58.84
2022-11-27T16:38:06.595Z,58.03
2022-11-27T16:43:08.140Z,60.25
2022-11-27T16:48:09.775Z,59.14
2022-11-27T16:53:11.333Z,60.04
2022-11-27T16:58:12.973Z,58.63
2022-11-27T17:03:14.662Z,53.94
2022-11-27T17:08:16.387Z,55.96
2022-11-27T17:13:18.121Z,57.71
2022-11-27T17:18:19.771Z,58.38
2022-11-27T17:23:21.330Z,56.63
2022-11-27T17:28:23.118Z,55.67
2022-11-27T17:33:24.765Z,58.79
2022-11-27T17:38:26.326Z,58.87
2022-11-27T17:43:30.375Z,61.23
2022-11-27T17:48:33.439Z,60.30
2022-11-27T17:53:35.140Z,59.78
2022-11-27T17:58:37.859Z,59.60
2022-11-27T18:03:40.812Z,54.83
2022-11-27T18:08:42.852Z,59.32
2022-11-27T18:13:45.016Z,60.84
2022-11-27T18:18:48.833Z,61.69
2022-11-27T18:29:12.491Z,60.41
2022-11-27T18:34:14.138Z,60.47
2022-11-27T18:39:15.742Z,59.05
2022-11-27T18:44:17.435Z,59.04
2022-11-27T18:49:19.127Z,56.85
2022-11-27T18:54:21.860Z,58.53
2022-11-27T18:59:24.111Z,60.63
2022-11-27T19:04:25.705Z,62.09
2022-11-27T19:09:28.514Z,59.98
2022-11-27T19:14:30.980Z,58.29
2022-11-27T19:24:54.787Z,59.46
2022-11-27T19:29:56.333Z,61.18
2022-11-27T19:35:00.034Z,61.28
2022-11-27T19:40:06.329Z,56.76
2022-11-27T19:45:08.573Z,58.04
2022-11-27T19:50:10.619Z,58.68
2022-11-27T19:55:12.292Z,56.83
2022-11-27T20:00:15.210Z,58.10
2022-11-27T20:05:17.842Z,57.38
2022-11-27T20:10:19.422Z,55.23
2022-11-27T20:15:21.086Z,55.76
2022-11-27T20:20:22.770Z,58.10
2022-11-27T20:25:25.790Z,56.93
2022-11-27T20:30:27.450Z,54.87
2022-11-27T20:35:29.025Z,52.04
2022-11-27T20:40:30.798Z,52.83
2022-11-27T20:45:32.499Z,54.22
2022-11-27T20:50:35.824Z,52.91
2022-11-27T20:55:37.631Z,52.16
2022-11-27T21:00:40.400Z,55.52
2022-11-27T21:05:44.034Z,55.29
2022-11-27T21:10:45.701Z,55.41
2022-11-27T21:15:47.914Z,51.82
2022-11-27T21:20:49.590Z,52.98
2022-11-27T21:25:51.254Z,55.33
2022-11-27T21:30:52.895Z,52.18
2022-11-27T21:35:56.063Z,54.27
2022-11-27T21:40:57.798Z,52.98
2022-11-27T21:46:14.258Z,53.30
2022-11-27T21:51:16.514Z,52.81
2022-11-27T21:56:20.070Z,53.02
2022-11-27T22:01:24.706Z,53.39
2022-11-27T22:06:30.781Z,51.58
2022-11-27T22:11:32.943Z,51.78
2022-11-27T22:16:42.924Z,54.87
2022-11-27T22:21:46.765Z,53.42
2022-11-27T22:26:48.865Z,55.73
2022-11-27T22:31:53.144Z,52.90
2022-11-27T22:36:57.665Z,53.66
2022-11-27T22:41:59.359Z,53.37
2022-11-27T22:47:00.929Z,56.34
2022-11-27T22:52:03.639Z,53.47
2022-11-27T22:57:05.287Z,53.57
2022-11-27T23:02:07.058Z,59.10
2022-11-27T23:07:10.900Z,58.53
2022-11-27T23:12:12.545Z,56.30
2022-11-27T23:17:14.228Z,57.96
2022-11-27T23:22:15.849Z,58.51
2022-11-27T23:27:17.422Z,58.93
2022-11-27T23:32:19.086Z,53.77
2022-11-27T23:37:20.667Z,52.54
2022-11-27T23:42:22.234Z,52.12
2022-11-27T23:47:23.798Z,54.49
2022-11-27T23:52:25.438Z,56.86
2022-11-27T23:57:27.167Z,55.68
